sensor_id;sensor_type;location;lat;lon;timestamp;pressure;altitude;pressure_sealevel;temperature;humidity
7754;BME280;3921;42.266;23.122;2023-05-14T00:00:28;96046.63;;;16.89;57.82
7754;BME280;3921;42.266;23.122;2023-05-14T00:02:55;96063.91;;;17.12;57.37
7754;BME280;3921;42.266;23.122;2023-05-14T00:05:22;95917.78;;;16.23;57.52
7754;BME280;3921;42.266;23.122;2023-05-14T00:07:49;95860.19;;;15.90;57.49
7754;BME280;3921;42.266;23.122;2023-05-14T00:10:16;95915.38;;;16.16;57.94
7754;BME280;3921;42.266;23.122;2023-05-14T00:12:44;96031.50;;;16.84;58.35
7754;BME280;3921;42.266;23.122;2023-05-14T00:15:13;96025.63;;;16.82;58.62
7754;BME280;3921;42.266;23.122;2023-05-14T00:17:40;95947.78;;;16.44;58.50
7754;BME280;3921;42.266;23.122;2023-05-14T00:20:07;95957.00;;;16.48;58.82
7754;BME280;3921;42.266;23.122;2023-05-14T00:22:36;96033.56;;;17.06;59.20
7754;BME280;3921;42.266;23.122;2023-05-14T00:25:05;95931.81;;;16.40;59.20
7754;BME280;3921;42.266;23.122;2023-05-14T00:27:32;95950.38;;;16.41;59.35
7754;BME280;3921;42.266;23.122;2023-05-14T00:29:59;96036.16;;;17.03;59.76
7754;BME280;3921;42.266;23.122;2023-05-14T00:32:27;95939.25;;;16.48;59.80
7754;BME280;3921;42.266;23.122;2023-05-14T00:34:54;95766.75;;;15.33;59.90
7754;BME280;3921;42.266;23.122;2023-05-14T00:37:22;96042.13;;;17.02;60.31
7754;BME280;3921;42.266;23.122;2023-05-14T00:39:49;95935.25;;;16.36;60.36
7754;BME280;3921;42.266;23.122;2023-05-14T00:42:26;95804.41;;;15.50;60.74
7754;BME280;3921;42.266;23.122;2023-05-14T00:44:53;96003.03;;;16.68;60.71
7754;BME280;3921;42.266;23.122;2023-05-14T00:47:28;96032.16;;;16.94;61.31
7754;BME280;3921;42.266;23.122;2023-05-14T00:49:55;95944.44;;;16.42;61.52
7754;BME280;3921;42.266;23.122;2023-05-14T00:52:22;95922.84;;;16.24;62.07
7754;BME280;3921;42.266;23.122;2023-05-14T00:54:49;95578.72;;;14.00;62.16
7754;BME280;3921;42.266;23.122;2023-05-14T00:57:17;96047.56;;;16.86;62.21
7754;BME280;3921;42.266;23.122;2023-05-14T00:59:44;96048.38;;;16.87;62.64
7754;BME280;3921;42.266;23.122;2023-05-14T01:02:11;96041.63;;;16.86;63.11
7754;BME280;3921;42.266;23.122;2023-05-14T01:04:39;95833.75;;;15.60;62.90
7754;BME280;3921;42.266;23.122;2023-05-14T01:07:11;96038.28;;;16.84;63.59
7754;BME280;3921;42.266;23.122;2023-05-14T01:09:50;95991.59;;;16.51;63.32
7754;BME280;3921;42.266;23.122;2023-05-14T01:12:26;95928.25;;;16.07;63.54
7754;BME280;3921;42.266;23.122;2023-05-14T01:15:01;96038.41;;;16.78;63.89
7754;BME280;3921;42.266;23.122;2023-05-14T01:17:45;95983.50;;;16.33;63.72
7754;BME280;3921;42.266;23.122;2023-05-14T01:20:14;95935.78;;;16.12;63.95
7754;BME280;3921;42.266;23.122;2023-05-14T01:22:43;96004.28;;;16.51;64.03
7754;BME280;3921;42.266;23.122;2023-05-14T01:25:12;96018.91;;;16.38;63.09
7754;BME280;3921;42.266;23.122;2023-05-14T01:27:53;95947.00;;;16.00;62.54
7754;BME280;3921;42.266;23.122;2023-05-14T01:30:29;95962.88;;;16.08;61.63
7754;BME280;3921;42.266;23.122;2023-05-14T01:32:59;96057.34;;;16.61;62.17
7754;BME280;3921;42.266;23.122;2023-05-14T01:35:29;95979.84;;;16.05;62.05
7754;BME280;3921;42.266;23.122;2023-05-14T01:37:59;96023.09;;;16.40;61.66
7754;BME280;3921;42.266;23.122;2023-05-14T01:40:27;95971.41;;;16.06;61.88
7754;BME280;3921;42.266;23.122;2023-05-14T01:42:54;95724.34;;;14.55;62.49
7754;BME280;3921;42.266;23.122;2023-05-14T01:45:22;95950.50;;;15.93;62.51
7754;BME280;3921;42.266;23.122;2023-05-14T01:47:50;95960.41;;;16.05;62.35
7754;BME280;3921;42.266;23.122;2023-05-14T01:50:17;95877.69;;;15.58;62.70
7754;BME280;3921;42.266;23.122;2023-05-14T01:52:44;95785.06;;;15.03;63.54
7754;BME280;3921;42.266;23.122;2023-05-14T01:55:14;96068.19;;;16.69;63.99
7754;BME280;3921;42.266;23.122;2023-05-14T01:57:42;96066.59;;;16.64;63.73
7754;BME280;3921;42.266;23.122;2023-05-14T02:00:10;95942.22;;;15.85;64.38
7754;BME280;3921;42.266;23.122;2023-05-14T02:02:37;96081.78;;;16.65;65.28
7754;BME280;3921;42.266;23.122;2023-05-14T02:05:04;96110.56;;;16.63;66.58
7754;BME280;3921;42.266;23.122;2023-05-14T02:07:31;96082.00;;;16.55;67.24
7754;BME280;3921;42.266;23.122;2023-05-14T02:09:58;95903.31;;;15.43;66.20
7754;BME280;3921;42.266;23.122;2023-05-14T02:12:26;96021.84;;;16.18;65.84
7754;BME280;3921;42.266;23.122;2023-05-14T02:14:53;95758.06;;;14.55;65.74
7754;BME280;3921;42.266;23.122;2023-05-14T02:17:20;96068.63;;;16.46;66.98
7754;BME280;3921;42.266;23.122;2023-05-14T02:19:47;96075.09;;;16.61;66.77
7754;BME280;3921;42.266;23.122;2023-05-14T02:22:14;95989.16;;;16.04;66.58
7754;BME280;3921;42.266;23.122;2023-05-14T02:24:41;96051.81;;;16.42;68.10
7754;BME280;3921;42.266;23.122;2023-05-14T02:27:08;95766.44;;;14.59;69.20
7754;BME280;3921;42.266;23.122;2023-05-14T02:29:38;95952.47;;;15.79;69.39
7754;BME280;3921;42.266;23.122;2023-05-14T02:32:06;95909.03;;;15.52;68.70
7754;BME280;3921;42.266;23.122;2023-05-14T02:34:33;95960.19;;;15.71;69.20
7754;BME280;3921;42.266;23.122;2023-05-14T02:37:00;95994.56;;;15.86;69.51
7754;BME280;3921;42.266;23.122;2023-05-14T02:39:27;95954.97;;;15.80;69.79
7754;BME280;3921;42.266;23.122;2023-05-14T02:41:54;95782.41;;;14.63;69.89
7754;BME280;3921;42.266;23.122;2023-05-14T02:44:21;95981.03;;;15.87;70.38
7754;BME280;3921;42.266;23.122;2023-05-14T02:46:49;96010.25;;;16.06;70.56
7754;BME280;3921;42.266;23.122;2023-05-14T02:49:16;96014.38;;;16.12;70.58
7754;BME280;3921;42.266;23.122;2023-05-14T02:51:42;96059.31;;;16.47;69.93
7754;BME280;3921;42.266;23.122;2023-05-14T02:54:09;95878.16;;;15.33;69.83
7754;BME280;3921;42.266;23.122;2023-05-14T02:56:36;96062.78;;;16.43;69.89
7754;BME280;3921;42.266;23.122;2023-05-14T02:59:03;95963.56;;;15.73;69.90
7754;BME280;3921;42.266;23.122;2023-05-14T03:01:30;95835.78;;;14.95;69.97
7754;BME280;3921;42.266;23.122;2023-05-14T03:03:58;96008.94;;;15.85;70.19
7754;BME280;3921;42.266;23.122;2023-05-14T03:06:25;95794.94;;;14.67;70.03
7754;BME280;3921;42.266;23.122;2023-05-14T03:08:52;96029.53;;;16.13;70.39
7754;BME280;3921;42.266;23.122;2023-05-14T03:11:19;95673.97;;;13.95;70.36
7754;BME280;3921;42.266;23.122;2023-05-14T03:13:46;96066.28;;;16.37;69.82
7754;BME280;3921;42.266;23.122;2023-05-14T03:16:13;95923.78;;;15.29;68.35
7754;BME280;3921;42.266;23.122;2023-05-14T03:18:40;95793.22;;;14.17;65.45
7754;BME280;3921;42.266;23.122;2023-05-14T03:21:08;95773.66;;;14.26;64.26
7754;BME280;3921;42.266;23.122;2023-05-14T03:23:35;95929.22;;;15.07;63.87
7754;BME280;3921;42.266;23.122;2023-05-14T03:26:02;95648.97;;;13.16;62.82
7754;BME280;3921;42.266;23.122;2023-05-14T03:28:29;95783.94;;;14.16;63.27
7754;BME280;3921;42.266;23.122;2023-05-14T03:30:56;95968.50;;;15.30;62.79
7754;BME280;3921;42.266;23.122;2023-05-14T03:33:23;95869.78;;;14.79;63.51
7754;BME280;3921;42.266;23.122;2023-05-14T03:35:50;95819.53;;;14.59;63.55
7754;BME280;3921;42.266;23.122;2023-05-14T03:38:18;96011.53;;;15.81;64.08
7754;BME280;3921;42.266;23.122;2023-05-14T03:40:45;95939.88;;;15.25;64.31
7754;BME280;3921;42.266;23.122;2023-05-14T03:43:12;96058.72;;;15.88;65.52
7754;BME280;3921;42.266;23.122;2023-05-14T03:45:39;95593.81;;;12.92;65.54
7754;BME280;3921;42.266;23.122;2023-05-14T03:48:06;95965.28;;;15.22;65.59
7754;BME280;3921;42.266;23.122;2023-05-14T03:50:33;96080.78;;;15.81;65.78
7754;BME280;3921;42.266;23.122;2023-05-14T03:53:00;96028.09;;;15.51;65.46
7754;BME280;3921;42.266;23.122;2023-05-14T03:55:28;95770.13;;;13.81;65.20
7754;BME280;3921;42.266;23.122;2023-05-14T03:57:55;95752.44;;;13.84;65.18
7754;BME280;3921;42.266;23.122;2023-05-14T04:00:22;96100.31;;;15.78;64.77
7754;BME280;3921;42.266;23.122;2023-05-14T04:02:49;95941.50;;;14.76;64.92
7754;BME280;3921;42.266;23.122;2023-05-14T04:05:16;96119.75;;;15.76;64.91
7754;BME280;3921;42.266;23.122;2023-05-14T04:07:43;96060.97;;;15.52;64.49
7754;BME280;3921;42.266;23.122;2023-05-14T04:10:11;95985.81;;;15.03;64.03
7754;BME280;3921;42.266;23.122;2023-05-14T04:12:40;96038.53;;;15.31;63.96
7754;BME280;3921;42.266;23.122;2023-05-14T04:15:08;95644.34;;;12.86;63.51
7754;BME280;3921;42.266;23.122;2023-05-14T04:17:35;96023.69;;;15.09;63.53
7754;BME280;3921;42.266;23.122;2023-05-14T04:20:02;96007.94;;;14.89;62.93
7754;BME280;3921;42.266;23.122;2023-05-14T04:22:29;95961.06;;;14.65;63.03
7754;BME280;3921;42.266;23.122;2023-05-14T04:24:56;96031.28;;;15.09;63.14
7754;BME280;3921;42.266;23.122;2023-05-14T04:27:23;95726.59;;;12.96;64.10
7754;BME280;3921;42.266;23.122;2023-05-14T04:29:51;96027.38;;;14.87;64.12
7754;BME280;3921;42.266;23.122;2023-05-14T04:32:18;96144.53;;;15.55;64.75
7754;BME280;3921;42.266;23.122;2023-05-14T04:34:45;96093.66;;;15.12;65.72
7754;BME280;3921;42.266;23.122;2023-05-14T04:37:13;95988.25;;;14.49;66.86
7754;BME280;3921;42.266;23.122;2023-05-14T04:39:41;95814.75;;;13.10;68.72
7754;BME280;3921;42.266;23.122;2023-05-14T04:42:10;95954.91;;;14.20;69.44
7754;BME280;3921;42.266;23.122;2023-05-14T04:44:37;96066.28;;;14.80;70.90
7754;BME280;3921;42.266;23.122;2023-05-14T04:47:06;96107.16;;;15.12;72.19
7754;BME280;3921;42.266;23.122;2023-05-14T04:49:33;95882.38;;;13.57;72.45
7754;BME280;3921;42.266;23.122;2023-05-14T04:52:00;96011.13;;;14.37;72.54
7754;BME280;3921;42.266;23.122;2023-05-14T04:54:27;95997.72;;;14.30;73.19
7754;BME280;3921;42.266;23.122;2023-05-14T04:56:54;96177.06;;;15.23;72.90
7754;BME280;3921;42.266;23.122;2023-05-14T04:59:21;96191.22;;;15.36;72.09
7754;BME280;3921;42.266;23.122;2023-05-14T05:01:48;96183.69;;;15.30;71.73
7754;BME280;3921;42.266;23.122;2023-05-14T05:04:19;95728.06;;;12.32;71.96
7754;BME280;3921;42.266;23.122;2023-05-14T05:06:48;96099.34;;;14.65;72.14
7754;BME280;3921;42.266;23.122;2023-05-14T05:09:15;95957.28;;;13.60;72.04
7754;BME280;3921;42.266;23.122;2023-05-14T05:11:43;96139.72;;;14.74;72.62
7754;BME280;3921;42.266;23.122;2023-05-14T05:14:10;95958.03;;;13.66;72.72
7754;BME280;3921;42.266;23.122;2023-05-14T05:16:37;96093.63;;;14.49;72.51
7754;BME280;3921;42.266;23.122;2023-05-14T05:19:04;96122.19;;;14.57;73.00
7754;BME280;3921;42.266;23.122;2023-05-14T05:21:32;96108.09;;;14.34;73.70
7754;BME280;3921;42.266;23.122;2023-05-14T05:23:59;96195.16;;;14.91;73.74
7754;BME280;3921;42.266;23.122;2023-05-14T05:26:26;96042.66;;;14.07;74.50
7754;BME280;3921;42.266;23.122;2023-05-14T05:28:53;95968.41;;;13.39;74.11
7754;BME280;3921;42.266;23.122;2023-05-14T05:31:20;95766.88;;;12.13;73.34
7754;BME280;3921;42.266;23.122;2023-05-14T05:33:47;96031.16;;;13.78;74.06
7754;BME280;3921;42.266;23.122;2023-05-14T05:36:14;95941.78;;;13.02;74.19
7754;BME280;3921;42.266;23.122;2023-05-14T05:38:42;96100.00;;;14.00;73.23
7754;BME280;3921;42.266;23.122;2023-05-14T05:41:09;96134.38;;;14.18;73.30
7754;BME280;3921;42.266;23.122;2023-05-14T05:43:36;96108.19;;;14.24;75.00
7754;BME280;3921;42.266;23.122;2023-05-14T05:46:02;96018.75;;;13.52;74.90
7754;BME280;3921;42.266;23.122;2023-05-14T05:48:29;96099.00;;;14.15;75.27
7754;BME280;3921;42.266;23.122;2023-05-14T05:50:56;96015.44;;;13.46;75.74
7754;BME280;3921;42.266;23.122;2023-05-14T05:53:23;96100.72;;;14.12;75.32
7754;BME280;3921;42.266;23.122;2023-05-14T05:55:52;96104.94;;;14.09;75.47
7754;BME280;3921;42.266;23.122;2023-05-14T05:58:19;96095.72;;;14.07;75.47
7754;BME280;3921;42.266;23.122;2023-05-14T06:00:46;96035.38;;;13.75;75.65
7754;BME280;3921;42.266;23.122;2023-05-14T06:03:13;95821.25;;;12.38;75.82
7754;BME280;3921;42.266;23.122;2023-05-14T06:05:40;95864.63;;;12.77;76.25
7754;BME280;3921;42.266;23.122;2023-05-14T06:08:07;95951.66;;;13.28;76.21
7754;BME280;3921;42.266;23.122;2023-05-14T06:10:34;96187.00;;;14.66;77.02
7754;BME280;3921;42.266;23.122;2023-05-14T06:13:03;96114.78;;;14.37;77.08
7754;BME280;3921;42.266;23.122;2023-05-14T06:15:31;96073.78;;;14.12;77.08
7754;BME280;3921;42.266;23.122;2023-05-14T06:17:58;96020.25;;;13.73;77.47
7754;BME280;3921;42.266;23.122;2023-05-14T06:20:25;96174.38;;;14.64;77.53
7754;BME280;3921;42.266;23.122;2023-05-14T06:22:51;96077.94;;;14.18;77.24
7754;BME280;3921;42.266;23.122;2023-05-14T06:25:18;96131.44;;;14.56;77.47
7754;BME280;3921;42.266;23.122;2023-05-14T06:27:45;95984.31;;;13.48;77.23
7754;BME280;3921;42.266;23.122;2023-05-14T06:30:14;96158.28;;;14.70;77.56
7754;BME280;3921;42.266;23.122;2023-05-14T06:32:41;96180.19;;;14.74;77.25
7754;BME280;3921;42.266;23.122;2023-05-14T06:35:08;96182.72;;;14.74;77.13
7754;BME280;3921;42.266;23.122;2023-05-14T06:37:35;96083.97;;;14.03;77.56
7754;BME280;3921;42.266;23.122;2023-05-14T06:40:03;95809.50;;;12.40;77.92
7754;BME280;3921;42.266;23.122;2023-05-14T06:42:30;96099.81;;;14.19;77.98
7754;BME280;3921;42.266;23.122;2023-05-14T06:44:57;96175.91;;;14.77;77.79
7754;BME280;3921;42.266;23.122;2023-05-14T06:47:25;95986.56;;;13.74;78.15
7754;BME280;3921;42.266;23.122;2023-05-14T06:49:52;96132.16;;;14.69;78.29
7754;BME280;3921;42.266;23.122;2023-05-14T06:52:20;96062.50;;;14.39;78.58
7754;BME280;3921;42.266;23.122;2023-05-14T06:54:47;95973.06;;;13.78;79.06
7754;BME280;3921;42.266;23.122;2023-05-14T06:57:14;95780.91;;;12.43;79.30
7754;BME280;3921;42.266;23.122;2023-05-14T06:59:40;95849.19;;;13.11;79.58
7754;BME280;3921;42.266;23.122;2023-05-14T07:02:07;96049.25;;;14.20;80.21
7754;BME280;3921;42.266;23.122;2023-05-14T07:04:36;96068.59;;;14.24;80.11
7754;BME280;3921;42.266;23.122;2023-05-14T07:07:03;95877.03;;;13.00;79.85
7754;BME280;3921;42.266;23.122;2023-05-14T07:09:30;95787.78;;;12.22;80.24
7754;BME280;3921;42.266;23.122;2023-05-14T07:11:57;95945.72;;;13.37;80.49
7754;BME280;3921;42.266;23.122;2023-05-14T07:14:24;95634.78;;;11.38;80.52
7754;BME280;3921;42.266;23.122;2023-05-14T07:16:51;96191.75;;;14.93;80.41
7754;BME280;3921;42.266;23.122;2023-05-14T07:19:18;95999.19;;;13.76;80.66
7754;BME280;3921;42.266;23.122;2023-05-14T07:21:48;96004.00;;;13.97;80.64
7754;BME280;3921;42.266;23.122;2023-05-14T07:24:15;96044.25;;;14.17;80.74
7754;BME280;3921;42.266;23.122;2023-05-14T07:26:42;96213.66;;;14.94;80.79
7754;BME280;3921;42.266;23.122;2023-05-14T07:29:09;96099.75;;;14.22;81.04
7754;BME280;3921;42.266;23.122;2023-05-14T07:31:36;95951.59;;;13.35;81.36
7754;BME280;3921;42.266;23.122;2023-05-14T07:34:03;95917.31;;;13.11;81.07
7754;BME280;3921;42.266;23.122;2023-05-14T07:36:30;96173.44;;;14.73;81.21
7754;BME280;3921;42.266;23.122;2023-05-14T07:38:58;95899.78;;;12.98;80.41
7754;BME280;3921;42.266;23.122;2023-05-14T07:41:25;96239.88;;;14.92;80.39
7754;BME280;3921;42.266;23.122;2023-05-14T07:43:52;96136.84;;;14.23;80.73
7754;BME280;3921;42.266;23.122;2023-05-14T07:46:19;96148.66;;;14.21;81.43
7754;BME280;3921;42.266;23.122;2023-05-14T07:48:46;96174.50;;;14.50;81.67
7754;BME280;3921;42.266;23.122;2023-05-14T07:51:13;95790.44;;;12.06;81.43
7754;BME280;3921;42.266;23.122;2023-05-14T07:53:40;95923.19;;;13.11;81.72
7754;BME280;3921;42.266;23.122;2023-05-14T07:56:08;96199.41;;;14.88;82.00
7754;BME280;3921;42.266;23.122;2023-05-14T07:58:36;96086.34;;;14.18;82.34
7754;BME280;3921;42.266;23.122;2023-05-14T08:01:03;95881.34;;;12.92;81.29
7754;BME280;3921;42.266;23.122;2023-05-14T08:03:31;95835.31;;;12.65;81.59
7754;BME280;3921;42.266;23.122;2023-05-14T08:05:58;95879.59;;;12.95;81.92
7754;BME280;3921;42.266;23.122;2023-05-14T08:08:25;96104.88;;;14.16;81.91
7754;BME280;3921;42.266;23.122;2023-05-14T08:10:52;96085.50;;;14.18;82.20
7754;BME280;3921;42.266;23.122;2023-05-14T08:13:21;96031.91;;;13.87;82.13
7754;BME280;3921;42.266;23.122;2023-05-14T08:15:48;96193.50;;;14.88;82.28
7754;BME280;3921;42.266;23.122;2023-05-14T08:18:15;96020.31;;;13.67;82.11
7754;BME280;3921;42.266;23.122;2023-05-14T08:20:42;95967.47;;;13.47;82.05
7754;BME280;3921;42.266;23.122;2023-05-14T08:23:09;96219.63;;;14.92;81.73
7754;BME280;3921;42.266;23.122;2023-05-14T08:25:36;95873.78;;;12.89;81.35
7754;BME280;3921;42.266;23.122;2023-05-14T08:28:03;95864.59;;;12.85;80.76
7754;BME280;3921;42.266;23.122;2023-05-14T08:30:32;96164.25;;;14.66;80.16
7754;BME280;3921;42.266;23.122;2023-05-14T08:32:59;96096.38;;;14.26;80.00
7754;BME280;3921;42.266;23.122;2023-05-14T08:35:26;95856.22;;;12.78;79.83
7754;BME280;3921;42.266;23.122;2023-05-14T08:37:53;96107.19;;;14.40;79.74
7754;BME280;3921;42.266;23.122;2023-05-14T08:40:21;96127.34;;;14.45;80.17
7754;BME280;3921;42.266;23.122;2023-05-14T08:42:49;96076.25;;;14.17;80.30
7754;BME280;3921;42.266;23.122;2023-05-14T08:45:18;96076.97;;;14.28;80.32
7754;BME280;3921;42.266;23.122;2023-05-14T08:47:48;96139.72;;;14.71;80.79
7754;BME280;3921;42.266;23.122;2023-05-14T08:50:16;96132.94;;;14.73;80.57
7754;BME280;3921;42.266;23.122;2023-05-14T08:52:44;96087.94;;;14.28;80.27
7754;BME280;3921;42.266;23.122;2023-05-14T08:55:11;95981.63;;;13.64;80.34
7754;BME280;3921;42.266;23.122;2023-05-14T08:57:39;95877.19;;;12.85;80.51
7754;BME280;3921;42.266;23.122;2023-05-14T09:00:07;95882.00;;;13.11;80.70
7754;BME280;3921;42.266;23.122;2023-05-14T09:02:38;95998.41;;;13.71;81.11
7754;BME280;3921;42.266;23.122;2023-05-14T09:05:08;95649.78;;;11.54;80.47
7754;BME280;3921;42.266;23.122;2023-05-14T09:07:35;96062.09;;;13.99;79.92
7754;BME280;3921;42.266;23.122;2023-05-14T09:10:03;96142.34;;;14.63;80.07
7754;BME280;3921;42.266;23.122;2023-05-14T09:12:30;96047.72;;;14.05;80.80
7754;BME280;3921;42.266;23.122;2023-05-14T09:14:57;95874.63;;;12.89;81.26
7754;BME280;3921;42.266;23.122;2023-05-14T09:17:25;96067.13;;;14.02;81.20
7754;BME280;3921;42.266;23.122;2023-05-14T09:19:52;96124.00;;;14.43;81.18
7754;BME280;3921;42.266;23.122;2023-05-14T09:22:20;96043.81;;;13.75;81.28
7754;BME280;3921;42.266;23.122;2023-05-14T09:25:01;95892.25;;;12.92;81.30
7754;BME280;3921;42.266;23.122;2023-05-14T09:27:29;96094.88;;;14.06;81.33
7754;BME280;3921;42.266;23.122;2023-05-14T09:30:04;95863.88;;;12.66;81.32
7754;BME280;3921;42.266;23.122;2023-05-14T09:32:35;95653.03;;;11.66;81.15
7754;BME280;3921;42.266;23.122;2023-05-14T09:35:09;95742.44;;;12.24;80.60
7754;BME280;3921;42.266;23.122;2023-05-14T09:37:40;96045.97;;;14.11;81.05
7754;BME280;3921;42.266;23.122;2023-05-14T09:40:08;96184.34;;;14.76;81.17
7754;BME280;3921;42.266;23.122;2023-05-14T09:42:35;95734.88;;;12.24;80.72
7754;BME280;3921;42.266;23.122;2023-05-14T09:45:03;95720.63;;;12.18;81.12
7754;BME280;3921;42.266;23.122;2023-05-14T09:47:30;95836.59;;;13.11;80.94
7754;BME280;3921;42.266;23.122;2023-05-14T09:49:57;95611.84;;;11.77;81.30
7754;BME280;3921;42.266;23.122;2023-05-14T09:52:24;95869.09;;;13.41;81.29
7754;BME280;3921;42.266;23.122;2023-05-14T09:54:53;96016.25;;;14.32;81.80
7754;BME280;3921;42.266;23.122;2023-05-14T09:57:20;95997.13;;;14.12;81.84
7754;BME280;3921;42.266;23.122;2023-05-14T09:59:47;95839.03;;;13.20;82.17
7754;BME280;3921;42.266;23.122;2023-05-14T10:02:21;96051.56;;;14.40;82.56
7754;BME280;3921;42.266;23.122;2023-05-14T10:04:49;95994.59;;;14.10;83.25
7754;BME280;3921;42.266;23.122;2023-05-14T10:07:21;96099.94;;;14.83;82.77
7754;BME280;3921;42.266;23.122;2023-05-14T10:10:00;95984.28;;;14.27;82.97
7754;BME280;3921;42.266;23.122;2023-05-14T10:12:32;96059.59;;;14.73;82.78
7754;BME280;3921;42.266;23.122;2023-05-14T10:15:02;95948.13;;;14.23;82.67
7754;BME280;3921;42.266;23.122;2023-05-14T10:17:31;96055.28;;;14.81;82.36
7754;BME280;3921;42.266;23.122;2023-05-14T10:20:01;96025.38;;;14.43;82.63
7754;BME280;3921;42.266;23.122;2023-05-14T10:22:32;96021.13;;;14.45;83.03
7754;BME280;3921;42.266;23.122;2023-05-14T10:25:01;95629.25;;;12.03;82.94
7754;BME280;3921;42.266;23.122;2023-05-14T10:27:29;95877.38;;;13.52;83.59
7754;BME280;3921;42.266;23.122;2023-05-14T10:29:56;96139.47;;;14.94;83.60
7754;BME280;3921;42.266;23.122;2023-05-14T10:32:24;96009.50;;;14.31;84.11
7754;BME280;3921;42.266;23.122;2023-05-14T10:34:52;96007.72;;;14.41;84.10
7754;BME280;3921;42.266;23.122;2023-05-14T10:37:24;95939.94;;;14.03;84.33
7754;BME280;3921;42.266;23.122;2023-05-14T10:39:52;95609.28;;;11.84;84.20
7754;BME280;3921;42.266;23.122;2023-05-14T10:42:23;96003.66;;;14.29;84.93
7754;BME280;3921;42.266;23.122;2023-05-14T10:44:52;95550.75;;;11.58;85.34
7754;BME280;3921;42.266;23.122;2023-05-14T10:47:21;96096.31;;;15.03;85.85
7754;BME280;3921;42.266;23.122;2023-05-14T10:49:48;95975.75;;;14.37;86.32
7754;BME280;3921;42.266;23.122;2023-05-14T10:52:17;95820.97;;;13.57;86.96
7754;BME280;3921;42.266;23.122;2023-05-14T10:54:48;95966.53;;;14.34;86.67
7754;BME280;3921;42.266;23.122;2023-05-14T10:57:17;96116.50;;;15.09;86.93
7754;BME280;3921;42.266;23.122;2023-05-14T10:59:46;96122.34;;;15.14;87.45
7754;BME280;3921;42.266;23.122;2023-05-14T11:02:24;95845.34;;;13.59;87.29
7754;BME280;3921;42.266;23.122;2023-05-14T11:05:10;96008.47;;;14.52;87.99
7754;BME280;3921;42.266;23.122;2023-05-14T11:07:40;96046.78;;;14.85;87.55
7754;BME280;3921;42.266;23.122;2023-05-14T11:10:09;95910.47;;;14.02;87.34
7754;BME280;3921;42.266;23.122;2023-05-14T11:12:38;95869.56;;;13.74;86.84
7754;BME280;3921;42.266;23.122;2023-05-14T11:15:07;96096.94;;;15.19;87.43
7754;BME280;3921;42.266;23.122;2023-05-14T11:17:35;95818.59;;;13.44;87.37
7754;BME280;3921;42.266;23.122;2023-05-14T11:20:04;96103.75;;;15.13;87.74
7754;BME280;3921;42.266;23.122;2023-05-14T11:22:33;96107.88;;;15.22;87.86
7754;BME280;3921;42.266;23.122;2023-05-14T11:25:00;95959.72;;;14.38;88.35
7754;BME280;3921;42.266;23.122;2023-05-14T11:27:28;96024.13;;;14.77;88.72
7754;BME280;3921;42.266;23.122;2023-05-14T11:29:55;96039.28;;;14.80;88.32
7754;BME280;3921;42.266;23.122;2023-05-14T11:32:22;95915.44;;;14.11;88.09
7754;BME280;3921;42.266;23.122;2023-05-14T11:34:50;95990.63;;;14.60;87.97
7754;BME280;3921;42.266;23.122;2023-05-14T11:37:17;95972.06;;;14.63;87.99
7754;BME280;3921;42.266;23.122;2023-05-14T11:39:49;96078.19;;;15.30;88.76
7754;BME280;3921;42.266;23.122;2023-05-14T11:42:17;96069.75;;;15.30;88.59
7754;BME280;3921;42.266;23.122;2023-05-14T11:44:46;95865.03;;;14.00;88.86
7754;BME280;3921;42.266;23.122;2023-05-14T11:47:14;96013.00;;;14.89;88.83
7754;BME280;3921;42.266;23.122;2023-05-14T11:49:41;95939.41;;;14.44;88.62
7754;BME280;3921;42.266;23.122;2023-05-14T11:52:09;95971.88;;;14.76;88.57
7754;BME280;3921;42.266;23.122;2023-05-14T11:54:38;95971.75;;;14.84;88.58
7754;BME280;3921;42.266;23.122;2023-05-14T11:57:09;96054.50;;;15.34;88.37
7754;BME280;3921;42.266;23.122;2023-05-14T11:59:37;95733.81;;;13.28;88.00
7754;BME280;3921;42.266;23.122;2023-05-14T12:02:07;95971.03;;;14.76;88.10
7754;BME280;3921;42.266;23.122;2023-05-14T12:04:34;95960.13;;;14.74;88.09
7754;BME280;3921;42.266;23.122;2023-05-14T12:07:07;96052.78;;;15.36;88.45
7754;BME280;3921;42.266;23.122;2023-05-14T12:09:36;95949.34;;;14.59;87.78
7754;BME280;3921;42.266;23.122;2023-05-14T12:12:09;95767.75;;;13.70;87.04
7754;BME280;3921;42.266;23.122;2023-05-14T12:14:38;95857.13;;;14.23;86.61
7754;BME280;3921;42.266;23.122;2023-05-14T12:17:10;95911.28;;;14.69;86.08
7754;BME280;3921;42.266;23.122;2023-05-14T12:19:39;95528.00;;;12.48;85.79
7754;BME280;3921;42.266;23.122;2023-05-14T12:22:07;95938.72;;;14.93;86.20
7754;BME280;3921;42.266;23.122;2023-05-14T12:24:35;95922.75;;;14.91;87.02
7754;BME280;3921;42.266;23.122;2023-05-14T12:27:02;95905.19;;;14.79;87.21
7754;BME280;3921;42.266;23.122;2023-05-14T12:29:34;95973.44;;;15.36;87.49
7754;BME280;3921;42.266;23.122;2023-05-14T12:32:01;95854.16;;;14.55;87.94
7754;BME280;3921;42.266;23.122;2023-05-14T12:34:33;95907.59;;;14.88;88.49
7754;BME280;3921;42.266;23.122;2023-05-14T12:37:00;95596.38;;;12.90;88.70
7754;BME280;3921;42.266;23.122;2023-05-14T12:39:31;95476.09;;;12.35;88.68
7754;BME280;3921;42.266;23.122;2023-05-14T12:41:58;95720.63;;;13.71;88.22
7754;BME280;3921;42.266;23.122;2023-05-14T12:44:25;95767.47;;;13.92;87.22
7754;BME280;3921;42.266;23.122;2023-05-14T12:46:53;95818.16;;;14.38;86.51
7754;BME280;3921;42.266;23.122;2023-05-14T12:49:20;95853.34;;;14.53;86.57
7754;BME280;3921;42.266;23.122;2023-05-14T12:51:47;95874.88;;;14.77;86.48
7754;BME280;3921;42.266;23.122;2023-05-14T12:54:15;95710.63;;;13.63;86.41
7754;BME280;3921;42.266;23.122;2023-05-14T12:56:42;95919.28;;;14.97;86.09
7754;BME280;3921;42.266;23.122;2023-05-14T12:59:09;95558.78;;;12.73;85.91
7754;BME280;3921;42.266;23.122;2023-05-14T13:01:36;95527.19;;;12.46;86.21
7754;BME280;3921;42.266;23.122;2023-05-14T13:04:04;95903.44;;;14.84;86.43
7754;BME280;3921;42.266;23.122;2023-05-14T13:06:32;95869.22;;;14.63;86.64
7754;BME280;3921;42.266;23.122;2023-05-14T13:08:59;95632.13;;;13.18;86.04
7754;BME280;3921;42.266;23.122;2023-05-14T13:11:27;95863.34;;;14.61;85.85
7754;BME280;3921;42.266;23.122;2023-05-14T13:13:56;95854.19;;;14.54;85.30